Time;durP1;ratioP1;P1;durP2;ratioP2;P2;SDS_P1;SDS_P2;PMS_P1;PMS_P2;Temp;Humidity;BMP_temperature;BMP_pressure;BME280_temperature;BME280_humidity;BME280_pressure;Samples;Min_cycle;Max_cycle;Signal;HPM_P1;HPM_P2
2024/04/08 00:00:54;;;;;;;6.88;2.67;;;;;;;18.53;41.88;95174.63;5080424;28;20196;-83
2024/04/08 00:03:19;;;;;;;6.75;2.08;;;;;;;18.40;43.10;95175.47;5071840;28;20224;-84
2024/04/08 00:05:45;;;;;;;7.35;2.00;;;;;;;18.40;42.79;95174.66;5066222;28;20176;-84
2024/04/08 00:08:11;;;;;;;8.48;2.35;;;;;;;18.30;42.61;95171.66;5071620;28;20183;-83
2024/04/08 00:10:36;;;;;;;8.48;2.38;;;;;;;18.32;42.88;95177.50;5091922;28;20210;-83
2024/04/08 00:13:01;;;;;;;9.32;2.20;;;;;;;18.22;42.88;95174.47;5092100;28;20172;-84
2024/04/08 00:15:27;;;;;;;7.88;2.25;;;;;;;18.09;43.47;95177.91;5086802;28;20240;-84
2024/04/08 00:17:52;;;;;;;15.05;2.50;;;;;;;17.93;43.72;95160.72;5106300;28;20179;-84
2024/04/08 00:20:19;;;;;;;10.50;2.03;;;;;;;18.05;43.35;95153.88;5096570;28;20247;-85
2024/04/08 00:22:46;;;;;;;11.23;2.28;;;;;;;18.11;43.04;95145.19;5089571;28;20196;-83
2024/04/08 00:25:12;;;;;;;6.75;2.35;;;;;;;18.20;42.27;95147.56;5064630;28;20428;-84
2024/04/08 00:27:37;;;;;;;8.18;2.45;;;;;;;18.17;42.08;95146.19;5112607;28;20651;-84
2024/04/08 00:30:04;;;;;;;7.88;2.20;;;;;;;18.19;41.50;95143.34;5075851;28;20200;-84
2024/04/08 00:32:29;;;;;;;18.42;4.10;;;;;;;18.21;41.05;95144.78;5073889;28;20169;-83
2024/04/08 00:34:54;;;;;;;8.88;2.45;;;;;;;18.32;40.44;95138.88;5078627;28;20695;-83
2024/04/08 00:37:20;;;;;;;8.35;2.25;;;;;;;18.42;39.56;95140.28;5092992;28;20191;-82
2024/04/08 00:39:46;;;;;;;9.32;2.65;;;;;;;18.49;39.57;95138.44;5068983;28;20204;-84
2024/04/08 00:42:11;;;;;;;9.85;2.10;;;;;;;18.56;39.31;95136.59;5105235;28;20720;-84
2024/04/08 00:44:36;;;;;;;10.73;2.97;;;;;;;18.56;39.45;95136.59;5084995;28;20189;-84
2024/04/08 00:47:02;;;;;;;9.85;2.72;;;;;;;18.59;38.53;95141.44;5070707;28;20678;-84
2024/04/08 00:49:28;;;;;;;11.20;2.42;;;;;;;18.65;38.71;95127.50;5062430;28;20189;-84
2024/04/08 00:51:54;;;;;;;12.23;2.47;;;;;;;18.74;37.78;95130.72;5099831;28;20616;-83
2024/04/08 00:54:20;;;;;;;7.28;2.08;;;;;;;18.77;38.09;95138.19;5081169;28;20207;-82
2024/04/08 00:56:45;;;;;;;11.15;2.63;;;;;;;18.80;37.61;95130.66;5088206;28;20184;-84
2024/04/08 00:59:13;;;;;;;8.63;2.47;;;;;;;18.89;37.87;95131.25;5061164;28;20196;-84
2024/04/08 01:01:39;;;;;;;12.43;2.47;;;;;;;18.94;37.28;95140.13;5089778;28;20731;-83
2024/04/08 01:04:05;;;;;;;8.27;2.00;;;;;;;18.98;37.20;95140.50;5103394;28;20176;-83
2024/04/08 01:06:30;;;;;;;10.43;2.40;;;;;;;18.89;38.13;95142.56;5070809;28;20211;-83
2024/04/08 01:08:57;;;;;;;11.88;2.65;;;;;;;18.83;38.63;95135.53;5065206;28;20212;-83
2024/04/08 01:11:22;;;;;;;9.25;2.28;;;;;;;18.68;40.08;95142.88;5074245;28;20232;-84
2024/04/08 01:13:47;;;;;;;12.32;2.05;;;;;;;18.65;40.83;95133.56;5087065;28;20157;-83
2024/04/08 01:16:13;;;;;;;13.60;2.35;;;;;;;18.52;41.01;95140.66;5063095;28;20168;-84
2024/04/08 01:18:38;;;;;;;10.73;2.42;;;;;;;18.47;40.89;95138.66;5070850;28;20197;-83
2024/04/08 01:21:04;;;;;;;6.25;2.03;;;;;;;18.46;41.41;95131.75;5086699;28;20180;-83
2024/04/08 01:23:38;;;;;;;9.98;2.30;;;;;;;18.36;40.69;95128.75;5072213;28;20193;-83
2024/04/08 01:26:03;;;;;;;11.77;2.72;;;;;;;18.36;40.73;95132.19;5088545;28;20173;-83
2024/04/08 01:28:28;;;;;;;9.27;2.60;;;;;;;18.37;39.74;95139.06;5055981;28;20184;-83
2024/04/08 01:30:55;;;;;;;12.55;2.10;;;;;;;18.32;40.12;95138.88;5077378;28;20660;-83
2024/04/08 01:33:21;;;;;;;9.00;2.10;;;;;;;18.35;40.31;95137.66;5070022;28;20186;-83
2024/04/08 01:35:46;;;;;;;7.60;2.40;;;;;;;18.35;40.78;95137.66;5092209;28;20196;-83
2024/04/08 01:38:12;;;;;;;12.65;2.63;;;;;;;18.33;40.98;95135.22;5073917;28;20279;-83
2024/04/08 01:40:37;;;;;;;9.50;2.35;;;;;;;18.21;41.41;95141.34;5088640;28;20227;-83
2024/04/08 01:43:02;;;;;;;5.90;2.20;;;;;;;18.14;41.88;95146.59;5069833;28;20681;-83
2024/04/08 01:45:28;;;;;;;13.57;2.65;;;;;;;18.05;42.00;95153.88;5087338;28;20686;-83
2024/04/08 01:47:53;;;;;;;9.00;2.13;;;;;;;18.07;42.25;95149.22;5087411;28;20208;-84
2024/04/08 01:50:18;;;;;;;7.68;2.42;;;;;;;17.93;43.11;95146.78;5072040;28;20573;-84
2024/04/08 01:52:44;;;;;;;8.85;2.00;;;;;;;17.85;43.10;95141.78;5065915;28;20668;-84
2024/04/08 01:55:09;;;;;;;8.40;2.05;;;;;;;17.77;43.31;95140.94;5081722;28;20601;-84
2024/04/08 01:57:34;;;;;;;11.20;2.40;;;;;;;17.70;43.48;95152.47;5088476;28;20610;-84
2024/04/08 01:59:59;;;;;;;9.85;2.40;;;;;;;17.58;43.98;95151.38;5096056;28;20189;-83
2024/04/08 02:02:25;;;;;;;9.07;2.42;;;;;;;17.53;44.69;95165.13;5085380;28;20219;-84
2024/04/08 02:04:50;;;;;;;8.88;2.15;;;;;;;17.48;43.87;95167.53;5068935;28;20168;-83
2024/04/08 02:07:16;;;;;;;8.55;2.55;;;;;;;17.47;43.45;95165.91;5066376;28;20176;-84
2024/04/08 02:09:41;;;;;;;9.57;2.53;;;;;;;17.49;43.22;95174.41;5102762;28;20227;-84
2024/04/08 02:12:07;;;;;;;9.77;2.53;;;;;;;17.43;43.30;95175.22;5066739;28;20174;-83
2024/04/08 02:14:32;;;;;;;9.73;2.40;;;;;;;17.41;43.35;95171.97;5089687;28;20176;-84
2024/04/08 02:16:58;;;;;;;12.35;2.35;;;;;;;17.34;43.79;95177.22;5061547;28;20193;-84
2024/04/08 02:19:24;;;;;;;8.40;2.55;;;;;;;17.33;43.55;95164.28;5075647;28;20200;-84
2024/04/08 02:21:50;;;;;;;8.02;2.47;;;;;;;17.36;43.12;95163.88;5088559;28;20207;-84
2024/04/08 02:24:15;;;;;;;8.40;2.85;;;;;;;17.32;43.12;95163.50;5066080;28;20188;-84
2024/04/08 02:26:40;;;;;;;13.93;2.72;;;;;;;17.29;43.77;95158.63;5086376;28;20180;-84
2024/04/08 02:29:06;;;;;;;14.05;2.95;;;;;;;17.33;43.75;95148.53;5087485;28;20200;-83
2024/04/08 02:31:31;;;;;;;10.60;2.85;;;;;;;17.31;43.73;95159.22;5083523;28;20192;-83
2024/04/08 02:33:56;;;;;;;6.68;2.20;;;;;;;17.40;42.85;95165.09;5094353;28;20177;-84
2024/04/08 02:36:22;;;;;;;7.50;2.10;;;;;;;17.45;42.17;95167.94;5070359;28;20176;-84
2024/04/08 02:38:47;;;;;;;11.70;2.40;;;;;;;17.44;42.21;95153.19;5073829;28;20258;-84
2024/04/08 02:41:12;;;;;;;8.77;2.33;;;;;;;17.51;41.68;95156.66;5063188;28;20253;-84
2024/04/08 02:43:38;;;;;;;12.48;2.42;;;;;;;17.58;40.96;95156.63;5084934;28;20215;-83
2024/04/08 02:46:03;;;;;;;11.50;2.47;;;;;;;17.63;40.54;95160.28;5072191;28;20554;-83
2024/04/08 02:48:29;;;;;;;8.73;2.05;;;;;;;17.72;39.88;95160.94;5089447;28;20184;-83
2024/04/08 02:50:54;;;;;;;9.05;2.50;;;;;;;17.78;39.99;95158.31;5087982;28;20261;-82
2024/04/08 02:53:19;;;;;;;13.40;2.30;;;;;;;17.75;39.87;95157.91;5086439;28;20604;-83
2024/04/08 02:55:45;;;;;;;10.82;2.58;;;;;;;17.77;39.92;95155.91;5065986;28;20241;-83
2024/04/08 02:58:10;;;;;;;13.43;2.28;;;;;;;17.81;39.33;95159.72;5084389;28;20232;-83
2024/04/08 03:00:39;;;;;;;11.05;2.33;;;;;;;17.78;39.16;95155.69;5062305;28;20227;-83
2024/04/08 03:03:05;;;;;;;9.10;2.00;;;;;;;17.77;39.38;95153.28;5078137;28;20227;-84
2024/04/08 03:05:31;;;;;;;7.97;1.75;;;;;;;17.82;38.92;95161.34;5078814;28;20635;-83
2024/04/08 03:07:56;;;;;;;9.32;2.33;;;;;;;17.79;38.90;95165.19;5067514;28;20268;-84
2024/04/08 03:10:22;;;;;;;11.55;2.20;;;;;;;17.76;39.16;95165.59;5063901;28;20287;-83
2024/04/08 03:12:47;;;;;;;7.25;1.80;;;;;;;17.83;38.51;95170.84;5072016;28;20169;-83
2024/04/08 03:15:13;;;;;;;10.10;2.05;;;;;;;17.83;38.54;95171.66;5061209;28;20184;-83
2024/04/08 03:17:39;;;;;;;8.98;2.20;;;;;;;17.79;38.97;95161.75;5082180;28;20184;-84
2024/04/08 03:20:05;;;;;;;10.30;2.40;;;;;;;17.73;39.17;95160.72;5096453;28;20203;-83
2024/04/08 03:22:30;;;;;;;10.27;2.13;;;;;;;17.73;39.51;95162.56;5084610;28;20589;-84
2024/04/08 03:24:56;;;;;;;11.52;2.03;;;;;;;17.66;40.15;95170.38;5083587;28;20169;-81
2024/04/08 03:27:21;;;;;;;7.32;1.58;;;;;;;17.69;39.96;95175.25;5079864;28;20181;-84
2024/04/08 03:29:46;;;;;;;4.25;1.98;;;;;;;17.65;39.72;95168.78;5071521;28;20204;-83
2024/04/08 03:32:12;;;;;;;9.52;2.40;;;;;;;17.64;39.52;95172.41;5071035;28;20189;-83
2024/04/08 03:34:37;;;;;;;7.38;2.00;;;;;;;17.67;39.43;95176.44;5095989;28;20516;-82
2024/04/08 03:37:03;;;;;;;7.53;2.40;;;;;;;17.67;40.34;95166.78;5075907;28;20168;-83
2024/04/08 03:39:29;;;;;;;7.68;2.13;;;;;;;17.67;40.02;95164.16;5064253;28;20197;-83
2024/04/08 03:41:54;;;;;;;14.10;2.35;;;;;;;17.58;40.50;95167.97;5086566;28;20223;-82
2024/04/08 03:44:19;;;;;;;6.63;2.10;;;;;;;17.64;40.01;95168.97;5088721;28;20180;-83
2024/04/08 03:46:45;;;;;;;13.10;2.20;;;;;;;17.72;39.34;95169.63;5086698;28;20184;-84
2024/04/08 03:49:10;;;;;;;7.53;1.73;;;;;;;17.81;38.46;95173.66;5093278;28;20219;-83
2024/04/08 03:51:36;;;;;;;7.10;1.90;;;;;;;17.91;38.62;95172.47;5074084;28;20196;-83
2024/04/08 03:54:02;;;;;;;13.05;1.92;;;;;;;17.90;39.26;95176.91;5088255;28;20252;-83
2024/04/08 03:56:27;;;;;;;5.75;2.03;;;;;;;17.88;39.31;95171.06;5098840;28;20194;-84
2024/04/08 03:58:52;;;;;;;5.57;1.88;;;;;;;17.77;39.97;95169.84;5074759;28;20224;-84
2024/04/08 04:01:18;;;;;;;7.50;1.75;;;;;;;17.64;40.39;95164.53;5101287;28;20171;-83
2024/04/08 04:03:43;;;;;;;10.73;2.10;;;;;;;17.53;40.56;95165.13;5079871;28;20201;-84
2024/04/08 04:06:09;;;;;;;11.35;2.53;;;;;;;17.50;40.79;95163.72;5063914;28;20173;-84
2024/04/08 04:08:35;;;;;;;10.98;2.38;;;;;;;17.42;40.75;95169.16;5093049;28;20184;-83
2024/04/08 04:11:01;;;;;;;8.32;2.50;;;;;;;17.41;40.84;95171.97;5086796;28;20169;-84
2024/04/08 04:13:26;;;;;;;8.63;1.75;;;;;;;17.38;40.90;95173.16;5072571;28;20179;-83
2024/04/08 04:15:51;;;;;;;14.27;2.47;;;;;;;17.41;40.88;95174.59;5040040;28;20211;-84
2024/04/08 04:18:17;;;;;;;5.78;1.95;;;;;;;17.40;40.87;95172.97;5092556;28;20195;-82
2024/04/08 04:20:45;;;;;;;10.35;2.30;;;;;;;17.49;40.64;95174.41;5085656;28;20196;-84
2024/04/08 04:23:11;;;;;;;5.57;2.30;;;;;;;17.52;40.67;95174.00;5093019;28;20356;-84
2024/04/08 04:25:37;;;;;;;9.93;2.30;;;;;;;17.52;40.08;95174.81;5085018;28;20189;-82
2024/04/08 04:28:03;;;;;;;10.43;2.58;;;;;;;17.51;40.66;95173.22;5076183;28;20240;-83
2024/04/08 04:30:28;;;;;;;7.10;2.03;;;;;;;17.48;40.80;95173.59;5078124;28;21185;-83
2024/04/08 04:32:56;;;;;;;12.20;2.53;;;;;;;17.43;41.10;95180.47;5097904;28;20179;-82
2024/04/08 04:35:21;;;;;;;11.77;2.15;;;;;;;17.36;41.82;95182.25;5081601;28;20242;-81
2024/04/08 04:37:47;;;;;;;10.02;2.60;;;;;;;17.30;41.84;95175.16;5081338;28;20177;-81
2024/04/08 04:40:13;;;;;;;9.30;2.03;;;;;;;17.21;42.72;95164.03;5076527;28;20232;-83
2024/04/08 04:42:38;;;;;;;10.77;2.10;;;;;;;17.13;43.34;95169.47;5079977;28;20511;-82
2024/04/08 04:45:04;;;;;;;12.93;2.30;;;;;;;17.04;44.30;95165.41;5087123;28;20206;-83
2024/04/08 04:47:29;;;;;;;15.35;2.38;;;;;;;16.94;44.52;95155.28;5085285;28;20180;-83
2024/04/08 04:49:55;;;;;;;13.20;2.15;;;;;;;16.87;45.09;95159.69;5065280;28;20196;-83
2024/04/08 04:52:20;;;;;;;7.60;2.65;;;;;;;16.82;44.83;95167.34;5071493;28;20383;-83
2024/04/08 04:54:45;;;;;;;12.95;2.72;;;;;;;16.77;45.50;95161.88;5080706;28;20583;-83
2024/04/08 04:57:11;;;;;;;17.00;2.90;;;;;;;16.75;45.16;95158.63;5082073;28;20207;-83
2024/04/08 04:59:36;;;;;;;10.43;2.30;;;;;;;16.78;44.76;95160.84;5083109;28;20441;-83
2024/04/08 05:02:01;;;;;;;7.97;2.00;;;;;;;16.77;45.02;95167.09;5064738;28;20204;-83
2024/04/08 05:04:27;;;;;;;9.50;2.40;;;;;;;16.76;45.02;95170.72;5069237;28;20513;-83
2024/04/08 05:06:52;;;;;;;8.23;2.05;;;;;;;16.76;45.08;95170.72;5069371;28;20506;-83
2024/04/08 05:09:17;;;;;;;8.30;2.20;;;;;;;16.83;44.63;95166.34;5069216;28;20321;-83
2024/04/08 05:11:43;;;;;;;6.07;2.00;;;;;;;16.78;45.50;95172.16;5073441;28;20192;-83
2024/04/08 05:14:08;;;;;;;8.68;2.20;;;;;;;16.81;45.29;95179.66;5088227;28;20188;-83
2024/04/08 05:16:34;;;;;;;9.88;2.60;;;;;;;16.81;45.10;95178.84;5077775;28;20188;-82
2024/04/08 05:18:59;;;;;;;7.15;2.45;;;;;;;16.87;44.56;95180.66;5087942;28;20234;-82
2024/04/08 05:21:24;;;;;;;13.70;2.50;;;;;;;16.94;44.18;95178.88;5089899;28;20184;-83
2024/04/08 05:23:50;;;;;;;7.15;2.25;;;;;;;16.93;44.52;95170.22;5073002;28;20196;-82
2024/04/08 05:26:16;;;;;;;6.38;2.53;;;;;;;17.04;44.64;95176.69;5061541;28;20673;-83
2024/04/08 05:28:41;;;;;;;10.57;2.30;;;;;;;17.22;43.88;95190.06;5075585;28;20606;-83
2024/04/08 05:31:06;;;;;;;11.73;2.53;;;;;;;17.25;43.85;95181.84;5084175;28;20247;-83
2024/04/08 05:33:32;;;;;;;6.68;1.95;;;;;;;17.36;43.85;95179.63;5081188;28;20172;-83
2024/04/08 05:35:57;;;;;;;7.15;1.98;;;;;;;17.41;43.76;95175.41;5082761;28;20196;-83
2024/04/08 05:38:24;;;;;;;7.00;2.28;;;;;;;17.50;43.67;95173.41;5070310;28;20184;-84
2024/04/08 05:40:50;;;;;;;11.25;2.45;;;;;;;17.52;43.58;95181.91;5086127;28;20223;-84
2024/04/08 05:43:15;;;;;;;11.25;2.83;;;;;;;17.50;43.53;95170.78;5080965;28;20577;-84
2024/04/08 05:45:41;;;;;;;10.07;2.25;;;;;;;17.52;44.12;95169.56;5064454;28;20243;-85
2024/04/08 05:48:07;;;;;;;16.25;3.08;;;;;;;17.51;44.00;95170.59;5100269;28;20248;-84
2024/04/08 05:50:33;;;;;;;10.25;2.10;;;;;;;17.56;44.01;95167.34;5067638;28;20633;-83
2024/04/08 05:52:59;;;;;;;10.80;2.30;;;;;;;17.83;43.82;95166.38;5069868;28;20173;-84
2024/04/08 05:56:54;;;;;;;8.45;2.20;;;;;;;18.02;43.54;95163.97;5453112;26;20593;-83
2024/04/08 05:59:20;;;;;;;7.97;2.60;;;;;;;18.04;43.81;95170.66;5427242;26;20274;-84
2024/04/08 06:01:45;;;;;;;7.10;2.35;;;;;;;18.11;44.02;95168.03;5406470;26;20249;-83
2024/04/08 06:04:10;;;;;;;9.60;3.08;;;;;;;17.99;45.21;95174.88;5437892;26;20227;-83
2024/04/08 06:06:36;;;;;;;7.70;2.38;;;;;;;17.97;44.41;95169.84;5451386;26;20227;-82
2024/04/08 06:09:04;;;;;;;4.80;2.20;;;;;;;18.27;44.16;95177.28;5419520;26;20246;-82
2024/04/08 06:11:29;;;;;;;12.05;2.70;;;;;;;18.35;43.25;95180.53;5443070;26;20227;-83
2024/04/08 06:13:55;;;;;;;7.47;2.58;;;;;;;18.51;42.95;95178.47;5398139;26;20261;-83
2024/04/08 06:16:20;;;;;;;18.67;2.72;;;;;;;18.61;43.08;95179.66;5410925;26;20699;-82
2024/04/08 06:18:46;;;;;;;7.88;2.25;;;;;;;18.88;41.92;95180.41;5441645;26;20758;-83
2024/04/08 06:21:11;;;;;;;5.43;1.95;;;;;;;19.21;40.93;95180.28;5398439;26;20730;-83
2024/04/08 06:23:36;;;;;;;8.50;2.70;;;;;;;19.28;41.13;95174.19;5417986;26;20279;-83
2024/04/08 06:26:03;;;;;;;7.93;1.90;;;;;;;19.59;40.18;95183.97;5374015;26;20808;-83
2024/04/08 06:28:29;;;;;;;7.20;2.70;;;;;;;19.70;39.96;95184.13;5421412;26;20736;-84
2024/04/08 06:30:55;;;;;;;12.13;2.83;;;;;;;19.71;39.98;95174.38;5425003;26;20236;-83
2024/04/08 06:33:20;;;;;;;10.35;1.92;;;;;;;19.79;39.10;95182.03;5421877;26;20227;-84
2024/04/08 06:35:46;;;;;;;6.47;2.00;;;;;;;19.83;39.11;95187.66;5400431;26;20761;-83
2024/04/08 06:38:14;;;;;;;10.27;2.25;;;;;;;19.88;38.78;95179.91;5393541;26;20240;-80
2024/04/08 06:40:40;;;;;;;7.45;1.80;;;;;;;20.12;38.58;95178.31;5392734;26;20278;-82
2024/04/08 06:43:05;;;;;;;7.35;2.03;;;;;;;20.17;38.61;95178.50;5395573;26;20243;-83
2024/04/08 06:45:31;;;;;;;8.93;2.35;;;;;;;20.30;38.29;95173.09;5430027;26;20235;-83
2024/04/08 06:47:56;;;;;;;6.65;2.38;;;;;;;20.37;37.79;95184.38;5401004;26;20290;-82
2024/04/08 06:50:22;;;;;;;4.72;2.00;;;;;;;20.50;37.10;95181.66;5413600;26;20321;-83
2024/04/08 06:52:47;;;;;;;7.80;2.28;;;;;;;20.52;36.60;95178.81;5423804;26;20361;-84
2024/04/08 06:55:12;;;;;;;7.70;2.13;;;;;;;20.69;36.44;95173.78;5430839;26;20278;-84
2024/04/08 06:57:38;;;;;;;12.13;2.30;;;;;;;20.67;36.81;95171.31;5429530;26;20638;-84
2024/04/08 07:00:03;;;;;;;7.68;1.75;;;;;;;20.62;36.90;95166.72;5414675;26;20779;-84
2024/04/08 07:02:29;;;;;;;11.20;2.42;;;;;;;20.68;37.00;95162.41;5393733;26;20643;-84
2024/04/08 07:04:54;;;;;;;8.95;2.45;;;;;;;20.73;36.86;95161.75;5431624;26;20274;-84
2024/04/08 07:07:20;;;;;;;8.20;2.03;;;;;;;20.89;36.56;95161.16;5420499;26;20279;-83
2024/04/08 07:09:45;;;;;;;7.90;2.33;;;;;;;20.68;36.65;95164.25;5416883;26;20236;-82
2024/04/08 07:12:10;;;;;;;6.63;1.55;;;;;;;20.67;36.90;95167.88;5413820;26;20227;-79
2024/04/08 07:14:35;;;;;;;11.35;2.55;;;;;;;20.51;36.80;95156.91;5421926;26;20650;-80
2024/04/08 07:17:01;;;;;;;9.45;2.70;;;;;;;20.97;36.47;95154.78;5395275;26;20254;-82
2024/04/08 07:19:26;;;;;;;9.45;2.03;;;;;;;20.79;36.46;95150.31;5419407;26;20661;-79
2024/04/08 07:21:51;;;;;;;6.60;2.00;;;;;;;20.95;36.03;95155.00;5433434;26;20241;-78
2024/04/08 07:24:17;;;;;;;6.85;2.13;;;;;;;21.12;36.74;95147.28;5416086;26;20277;-80
2024/04/08 07:26:45;;;;;;;10.63;1.83;;;;;;;21.29;36.56;95152.75;5366039;26;20284;-80
2024/04/08 07:29:10;;;;;;;6.25;1.85;;;;;;;21.36;36.01;95150.84;5439882;26;20255;-80
2024/04/08 07:31:35;;;;;;;5.28;2.03;;;;;;;21.67;35.53;95147.16;5408079;26;20243;-78
2024/04/08 07:34:01;;;;;;;6.35;1.88;;;;;;;21.62;35.72;95142.53;5378246;26;20242;-81
2024/04/08 07:36:26;;;;;;;10.70;2.92;;;;;;;21.72;35.17;95145.44;5412900;26;20237;-80
2024/04/08 07:38:52;;;;;;;9.07;2.40;;;;;;;21.86;35.51;95150.53;5417662;26;20234;-79
2024/04/08 07:41:17;;;;;;;7.50;2.47;;;;;;;21.83;35.28;95151.00;5386756;26;20243;-79
2024/04/08 07:43:43;;;;;;;7.97;2.55;;;;;;;21.88;35.47;95154.53;5390542;26;20587;-81
2024/04/08 07:46:08;;;;;;;7.90;2.00;;;;;;;22.12;35.28;95149.34;5409043;26;20235;-81
2024/04/08 07:48:34;;;;;;;6.72;2.30;;;;;;;22.19;34.67;95164.06;5397867;26;20272;-82
2024/04/08 07:50:59;;;;;;;6.95;1.98;;;;;;;22.30;34.35;95163.25;5433896;26;20261;-82
2024/04/08 07:53:26;;;;;;;6.80;2.05;;;;;;;22.16;33.75;95155.75;5386990;26;20235;-82
2024/04/08 07:55:52;;;;;;;5.97;1.90;;;;;;;21.94;34.57;95163.41;5415351;26;20239;-80
2024/04/08 07:58:17;;;;;;;6.50;1.98;;;;;;;21.81;33.76;95160.97;5423409;26;20346;-82
2024/04/08 08:00:42;;;;;;;10.77;2.30;;;;;;;22.13;33.88;95164.16;5391630;26;20254;-82
2024/04/08 08:03:08;;;;;;;9.68;2.28;;;;;;;21.87;34.14;95160.06;5422837;26;20234;-81
2024/04/08 08:05:33;;;;;;;8.35;2.17;;;;;;;22.05;33.47;95157.34;5391677;26;20270;-81
2024/04/08 08:07:59;;;;;;;6.03;1.67;;;;;;;22.15;33.72;95157.59;5419670;26;20282;-81
2024/04/08 08:10:25;;;;;;;9.32;1.90;;;;;;;22.36;33.38;95155.44;5409281;26;20247;-82
2024/04/08 08:12:51;;;;;;;9.68;2.10;;;;;;;22.51;32.85;95153.13;5430474;26;20226;-81
2024/04/08 08:15:16;;;;;;;9.75;2.55;;;;;;;22.59;32.85;95152.75;5426870;26;20238;-82
2024/04/08 08:17:41;;;;;;;7.97;1.90;;;;;;;22.59;33.59;95158.88;5415559;26;20239;-81
2024/04/08 08:20:07;;;;;;;6.32;1.60;;;;;;;22.36;33.66;95163.38;5391789;26;20308;-81
2024/04/08 08:22:32;;;;;;;9.93;2.10;;;;;;;22.45;33.76;95157.50;5401557;26;20244;-81
2024/04/08 08:24:58;;;;;;;5.82;1.92;;;;;;;22.49;33.64;95156.00;5418171;26;20245;-83
2024/04/08 08:27:23;;;;;;;10.20;2.20;;;;;;;22.63;33.63;95158.41;5376442;26;20708;-83
2024/04/08 08:29:52;;;;;;;7.35;1.85;;;;;;;22.85;34.26;95154.94;5425459;26;20250;-83
2024/04/08 08:32:17;;;;;;;9.25;2.10;;;;;;;23.00;33.70;95151.81;5384919;26;20238;-81
2024/04/08 08:34:43;;;;;;;9.02;1.80;;;;;;;23.25;33.41;95153.34;5426918;26;20338;-82
2024/04/08 08:37:09;;;;;;;7.55;2.00;;;;;;;23.15;32.85;95149.47;5426057;26;21257;-84
2024/04/08 08:39:37;;;;;;;7.40;1.80;;;;;;;23.33;31.94;95140.53;5394554;26;20242;-83
2024/04/08 08:42:06;;;;;;;7.97;2.17;;;;;;;23.29;31.65;95143.88;5437527;26;20235;-82
2024/04/08 08:44:33;;;;;;;13.55;2.33;;;;;;;23.52;31.35;95148.28;5413956;26;20275;-83
2024/04/08 08:46:58;;;;;;;9.27;1.92;;;;;;;23.49;31.70;95151.41;5429238;26;20301;-83
2024/04/08 08:49:28;;;;;;;7.05;2.20;;;;;;;23.61;31.74;95146.88;5391528;26;20737;-83
2024/04/08 08:51:53;;;;;;;8.57;2.05;;;;;;;23.70;31.08;95145.47;5426469;26;20702;-83
2024/04/08 08:54:19;;;;;;;7.60;2.35;;;;;;;23.83;31.02;95141.69;5416263;26;20234;-83
2024/04/08 08:56:44;;;;;;;8.35;1.98;;;;;;;23.77;29.98;95135.50;5383898;26;20265;-82
2024/04/08 08:59:11;;;;;;;7.78;1.95;;;;;;;23.87;29.36;95146.28;5431982;26;20348;-84
2024/04/08 09:01:37;;;;;;;9.35;2.22;;;;;;;23.78;30.13;95152.22;5417426;26;20239;-83
2024/04/08 09:04:06;;;;;;;11.55;2.42;;;;;;;23.80;30.14;95153.59;5410290;26;20283;-83
2024/04/08 09:06:32;;;;;;;7.55;2.22;;;;;;;23.99;29.36;95160.25;5414100;26;20645;-82
2024/04/08 09:08:57;;;;;;;6.65;2.00;;;;;;;24.08;29.79;95154.56;5407068;26;20380;-81
2024/04/08 09:11:23;;;;;;;8.63;2.00;;;;;;;24.31;30.25;95141.13;5381906;26;20262;-83
2024/04/08 09:13:50;;;;;;;6.72;1.92;;;;;;;24.44;29.75;95148.78;5412953;26;20575;-82
2024/04/08 09:16:22;;;;;;;8.07;2.25;;;;;;;24.64;29.12;95150.91;5416407;26;20730;-82
2024/04/08 09:18:47;;;;;;;7.53;2.05;;;;;;;24.65;29.06;95143.72;5384254;26;20643;-82
2024/04/08 09:21:12;;;;;;;7.75;2.30;;;;;;;24.41;28.34;95143.97;5391731;26;20270;-83
2024/04/08 09:23:42;;;;;;;8.88;2.30;;;;;;;24.63;29.23;95148.50;5407766;26;20789;-82
2024/04/08 09:26:08;;;;;;;7.72;1.73;;;;;;;24.70;28.67;95143.81;5416676;26;20414;-82
2024/04/08 09:28:33;;;;;;;10.60;2.13;;;;;;;24.71;28.77;95148.88;5421228;26;20285;-82
2024/04/08 09:30:58;;;;;;;8.98;2.00;;;;;;;24.88;29.50;95148.84;5420152;26;20285;-83
2024/04/08 09:33:24;;;;;;;5.30;1.83;;;;;;;24.88;29.49;95148.84;5422539;26;20284;-81
2024/04/08 09:35:50;;;;;;;6.72;2.38;;;;;;;24.92;29.59;95142.00;5411729;26;20281;-82
2024/04/08 09:38:17;;;;;;;9.38;2.40;;;;;;;24.96;30.22;95137.78;5389657;26;20723;-82
2024/04/08 09:40:42;;;;;;;9.45;2.10;;;;;;;24.96;29.78;95134.31;5432275;26;20238;-82
2024/04/08 09:43:08;;;;;;;8.43;2.45;;;;;;;24.86;29.92;95135.00;5386810;26;20235;-81
2024/04/08 09:45:35;;;;;;;6.40;1.95;;;;;;;25.17;30.43;95141.50;5408417;26;20235;-83
2024/04/08 09:48:01;;;;;;;7.72;1.98;;;;;;;25.27;29.78;95130.22;5393708;26;20242;-83
2024/04/08 09:50:27;;;;;;;9.20;2.30;;;;;;;25.49;29.96;95132.81;5395701;26;20248;-82
2024/04/08 09:52:52;;;;;;;6.40;2.22;;;;;;;25.43;28.92;95132.75;5388799;26;20247;-83
2024/04/08 09:55:25;;;;;;;8.13;1.85;;;;;;;25.34;28.40;95138.75;5422358;26;20238;-82
2024/04/08 09:57:53;;;;;;;11.35;2.35;;;;;;;25.12;28.77;95147.56;5417583;26;20246;-83
2024/04/08 10:00:18;;;;;;;10.73;1.80;;;;;;;25.32;28.93;95144.34;5393122;26;20250;-83
2024/04/08 10:02:45;;;;;;;4.35;1.77;;;;;;;25.59;28.07;95130.25;5432414;26;20335;-84
2024/04/08 10:05:13;;;;;;;10.45;1.90;;;;;;;25.52;28.41;95129.63;5393261;26;20258;-83
2024/04/08 10:07:39;;;;;;;10.70;2.38;;;;;;;25.65;28.76;95130.06;5389024;26;20317;-82
2024/04/08 10:10:05;;;;;;;7.75;2.33;;;;;;;25.68;28.59;95134.06;5383915;26;20246;-84
2024/04/08 10:12:31;;;;;;;8.43;2.13;;;;;;;25.81;29.07;95122.25;5381941;26;20305;-82
2024/04/08 10:15:07;;;;;;;7.32;1.90;;;;;;;25.73;28.40;95120.84;5416227;26;20250;-83
2024/04/08 10:17:32;;;;;;;6.15;2.17;;;;;;;26.12;28.36;95125.94;5393520;26;20277;-83
2024/04/08 10:19:58;;;;;;;5.82;1.85;;;;;;;25.90;27.91;95121.53;5407703;26;20239;-83
2024/04/08 10:22:28;;;;;;;8.10;2.03;;;;;;;26.29;27.43;95120.47;5384172;26;20286;-84
2024/04/08 10:24:53;;;;;;;8.07;1.92;;;;;;;26.20;27.89;95118.28;5376044;26;20317;-83
2024/04/08 10:27:20;;;;;;;7.32;2.08;;;;;;;26.42;26.46;95106.75;5396010;26;20254;-83
2024/04/08 10:29:55;;;;;;;9.68;1.90;;;;;;;26.15;26.90;95104.97;5408004;26;20576;-83
2024/04/08 10:32:21;;;;;;;6.88;2.10;;;;;;;26.35;26.18;95106.16;5406702;26;20337;-82
2024/04/08 10:34:46;;;;;;;7.47;2.67;;;;;;;25.94;26.43;95108.50;5416561;26;20230;-83
2024/04/08 10:37:11;;;;;;;9.82;2.80;;;;;;;26.09;27.35;95113.97;5416488;26;20313;-83
2024/04/08 10:39:37;;;;;;;8.68;2.50;;;;;;;26.22;26.37;95100.19;5420519;26;20242;-83
2024/04/08 10:42:13;;;;;;;12.50;2.38;;;;;;;26.52;25.50;95109.47;5419843;26;20612;-83
2024/04/08 10:44:38;;;;;;;11.13;2.58;;;;;;;26.62;26.04;95108.72;5408611;26;20237;-83
2024/04/08 10:47:05;;;;;;;9.75;2.40;;;;;;;27.23;25.34;95112.47;5423569;26;20365;-82
2024/04/08 10:49:31;;;;;;;9.30;2.55;;;;;;;27.40;23.95;95114.13;5441506;26;20243;-83
2024/04/08 10:51:56;;;;;;;10.73;2.63;;;;;;;27.06;24.37;95111.88;5437452;26;20817;-83
2024/04/08 10:54:21;;;;;;;10.55;2.88;;;;;;;26.95;24.59;95111.03;5417284;26;20289;-82
2024/04/08 10:56:47;;;;;;;10.50;2.55;;;;;;;27.14;25.10;95114.03;5387795;26;20267;-83
2024/04/08 10:59:12;;;;;;;15.00;2.90;;;;;;;27.27;24.89;95110.06;5388688;26;20278;-83
2024/04/08 11:01:38;;;;;;;13.98;2.47;;;;;;;27.43;24.33;95114.38;5397836;26;21523;-84
2024/04/08 11:04:03;;;;;;;15.18;3.53;;;;;;;27.48;24.99;95108.28;5429076;26;20740;-82
2024/04/08 11:06:29;;;;;;;18.65;2.67;;;;;;;27.97;24.16;95105.13;5416729;26;20277;-83
2024/04/08 11:08:55;;;;;;;9.73;2.40;;;;;;;28.09;22.96;95105.66;5380110;26;20242;-83
2024/04/08 11:11:24;;;;;;;15.40;2.50;;;;;;;27.84;24.89;95109.94;5391280;26;20246;-83
2024/04/08 11:13:50;;;;;;;12.85;2.42;;;;;;;28.00;24.22;95109.91;5449735;26;20235;-83
2024/04/08 11:16:16;;;;;;;15.25;2.53;;;;;;;27.52;22.96;95110.13;5438607;26;20284;-82
2024/04/08 11:18:41;;;;;;;16.90;2.95;;;;;;;27.76;23.30;95110.47;5401798;26;20246;-82
2024/04/08 11:21:07;;;;;;;14.60;3.20;;;;;;;27.89;23.39;95106.47;5417660;26;20242;-83
2024/04/08 11:23:33;;;;;;;12.10;2.83;;;;;;;27.43;23.75;95110.91;5413584;26;20235;-82
2024/04/08 11:25:58;;;;;;;13.48;2.78;;;;;;;27.65;22.66;95122.13;5374261;26;20583;-82